createdAt,value
2019-05-16T00:02:12.992Z,1.30
2019-05-16T00:04:44.785Z,1.17
2019-05-16T00:07:18.959Z,1.30
2019-05-16T00:09:49.749Z,1.20
2019-05-16T00:12:21.532Z,1.10
2019-05-16T00:14:53.393Z,1.10
2019-05-16T00:17:28.484Z,1.20
2019-05-16T00:19:59.151Z,1.22
2019-05-16T00:22:30.699Z,1.37
2019-05-16T00:25:02.563Z,1.10
2019-05-16T00:27:38.357Z,1.40
2019-05-16T00:30:09.946Z,1.33
2019-05-16T00:32:41.764Z,1.20
2019-05-16T00:35:13.785Z,1.37
2019-05-16T00:37:45.309Z,1.17
2019-05-16T00:40:18.893Z,1.43
2019-05-16T00:42:50.697Z,1.40
2019-05-16T00:45:22.661Z,1.10
2019-05-16T00:47:53.728Z,1.17
2019-05-16T00:50:25.657Z,1.43
2019-05-16T00:52:59.042Z,1.05
2019-05-16T00:55:32.210Z,1.10
2019-05-16T00:58:05.866Z,1.40
2019-05-16T01:00:50.532Z,1.30
2019-05-16T01:03:21.915Z,1.10
2019-05-16T01:05:53.665Z,1.13
2019-05-16T01:08:27.934Z,1.40
2019-05-16T01:10:59.260Z,1.20
2019-05-16T01:13:30.800Z,1.23
2019-05-16T01:16:02.446Z,1.53
2019-05-16T01:18:34.093Z,1.23
2019-05-16T01:21:07.854Z,1.37
2019-05-16T01:23:39.532Z,1.43
2019-05-16T01:26:10.944Z,1.20
2019-05-16T01:28:43.361Z,1.50
2019-05-16T01:31:14.904Z,1.30
2019-05-16T01:33:47.884Z,1.52
2019-05-16T01:36:33.420Z,1.40
2019-05-16T01:38:53.189Z,1.30
2019-05-16T01:41:24.961Z,1.47
2019-05-16T01:43:58.518Z,1.37
2019-05-16T01:46:29.741Z,1.40
2019-05-16T01:49:01.616Z,1.50
2019-05-16T01:51:32.872Z,1.30
2019-05-16T01:54:04.163Z,1.45
2019-05-16T01:56:35.512Z,1.40
2019-05-16T01:59:08.811Z,1.52
2019-05-16T02:01:40.322Z,1.60
2019-05-16T02:04:12.200Z,1.60
2019-05-16T02:06:51.708Z,1.50
2019-05-16T02:09:18.899Z,1.43
2019-05-16T02:11:50.617Z,1.23
2019-05-16T02:14:21.926Z,1.43
2019-05-16T02:16:54.601Z,1.50
2019-05-16T02:19:27.989Z,1.60
2019-05-16T02:21:59.789Z,1.63
2019-05-16T02:24:31.395Z,1.53
2019-05-16T02:27:02.717Z,1.67
2019-05-16T02:29:34.223Z,1.57
2019-05-16T02:32:05.928Z,1.92
2019-05-16T02:34:41.340Z,1.80
2019-05-16T02:37:23.575Z,1.42
2019-05-16T02:39:44.051Z,1.57
2019-05-16T02:42:15.639Z,1.42
2019-05-16T02:44:50.983Z,1.50
2019-05-16T02:47:21.409Z,1.50
2019-05-16T02:49:52.828Z,1.27
2019-05-16T02:52:24.171Z,1.40
2019-05-16T02:54:55.961Z,1.50
2019-05-16T02:57:27.784Z,1.50
2019-05-16T03:00:01.703Z,1.50
2019-05-16T03:02:32.449Z,1.50
2019-05-16T03:05:04.116Z,1.43
2019-05-16T03:07:41.950Z,1.30
2019-05-16T03:10:11.069Z,1.60
2019-05-16T03:12:44.215Z,1.30
2019-05-16T03:15:15.973Z,1.37
2019-05-16T03:17:51.214Z,1.35
2019-05-16T03:20:25.809Z,1.77
2019-05-16T03:23:02.260Z,1.50
2019-05-16T03:25:33.302Z,1.40
2019-05-16T03:28:05.181Z,1.50
2019-05-16T03:30:36.195Z,1.62
2019-05-16T03:33:07.714Z,1.43
2019-05-16T03:35:44.560Z,1.12
2019-05-16T03:38:12.695Z,1.77
2019-05-16T03:40:45.174Z,1.20
2019-05-16T03:43:17.370Z,1.45
2019-05-16T03:45:52.099Z,1.30
2019-05-16T03:48:22.895Z,1.60
2019-05-16T03:50:54.692Z,1.57
2019-05-16T03:53:26.008Z,1.40
2019-05-16T03:55:58.115Z,1.62
2019-05-16T03:58:31.028Z,1.67
2019-05-16T04:01:02.863Z,1.50
2019-05-16T04:03:34.909Z,1.63
2019-05-16T04:06:06.524Z,1.25
2019-05-16T04:08:41.026Z,1.40
2019-05-16T04:11:12.590Z,1.80
2019-05-16T04:13:44.252Z,1.35
2019-05-16T04:16:16.189Z,1.50
2019-05-16T04:18:51.153Z,1.57
2019-05-16T04:21:22.288Z,1.40
2019-05-16T04:23:53.429Z,1.50
2019-05-16T04:26:25.406Z,1.40
2019-05-16T04:29:00.556Z,1.62
2019-05-16T04:31:31.126Z,1.52
2019-05-16T04:34:02.786Z,1.27
2019-05-16T04:36:34.329Z,1.60
2019-05-16T04:39:11.653Z,1.27
2019-05-16T04:41:41.643Z,1.50
2019-05-16T04:44:13.229Z,1.32
2019-05-16T04:46:46.047Z,1.30
2019-05-16T04:49:20.979Z,1.10
2019-05-16T04:51:51.870Z,1.55
2019-05-16T04:54:24.673Z,1.35
2019-05-16T04:56:56.002Z,1.50
2019-05-16T04:59:31.127Z,1.40
2019-05-16T05:02:03.240Z,1.43
2019-05-16T05:04:35.438Z,1.20
2019-05-16T05:07:07.052Z,1.30
2019-05-16T05:09:40.826Z,1.30
2019-05-16T05:12:12.587Z,1.10
2019-05-16T05:14:45.468Z,1.77
2019-05-16T05:17:17.544Z,1.50
2019-05-16T05:19:50.636Z,1.37
2019-05-16T05:22:22.885Z,1.37
2019-05-16T05:24:53.893Z,1.60
2019-05-16T05:27:25.519Z,1.70
2019-05-16T05:29:57.464Z,1.70
2019-05-16T05:32:30.570Z,2.00
2019-05-16T05:35:02.923Z,1.42
2019-05-16T05:37:34.705Z,1.60
2019-05-16T05:40:07.333Z,1.90
2019-05-16T05:42:40.156Z,1.70
2019-05-16T05:45:13.233Z,1.82
2019-05-16T05:47:45.327Z,1.90
2019-05-16T05:50:19.936Z,1.60
2019-05-16T05:52:51.353Z,1.65
2019-05-16T05:55:22.852Z,1.72
2019-05-16T05:57:54.718Z,1.70
2019-05-16T06:00:30.119Z,1.42
2019-05-16T06:03:00.441Z,1.32
2019-05-16T06:05:32.332Z,1.70
2019-05-16T06:08:03.746Z,1.50
2019-05-16T06:10:35.352Z,1.40
2019-05-16T06:13:07.453Z,1.20
2019-05-16T06:15:39.987Z,2.02
2019-05-16T06:18:12.003Z,1.72
2019-05-16T06:20:43.705Z,1.67
2019-05-16T06:23:14.717Z,1.90
2019-05-16T06:25:46.386Z,2.10
2019-05-16T06:28:20.544Z,1.80
2019-05-16T06:30:52.152Z,1.80
2019-05-16T06:33:24.417Z,1.95
2019-05-16T06:35:56.147Z,2.20
2019-05-16T06:38:29.796Z,1.90
2019-05-16T06:41:00.677Z,2.20
2019-05-16T06:43:32.131Z,1.90
2019-05-16T06:46:03.991Z,2.20
2019-05-16T06:48:35.984Z,2.42
2019-05-16T06:51:07.415Z,2.02
2019-05-16T06:53:40.470Z,2.15
2019-05-16T06:56:12.501Z,1.67
2019-05-16T06:58:48.283Z,2.60
2019-05-16T07:01:18.576Z,2.30
2019-05-16T07:03:51.025Z,2.65
2019-05-16T07:06:47.571Z,2.33
2019-05-16T07:08:57.078Z,2.20
2019-05-16T07:11:30.628Z,2.35
2019-05-16T07:14:02.269Z,2.40
2019-05-16T07:16:34.228Z,2.40
2019-05-16T07:19:06.249Z,2.70
2019-05-16T07:21:39.681Z,2.05
2019-05-16T07:24:11.929Z,2.00
2019-05-16T07:26:43.101Z,2.20
2019-05-16T07:29:15.052Z,2.00
2019-05-16T07:31:46.618Z,2.40
2019-05-16T07:34:17.715Z,2.10
2019-05-16T07:36:50.324Z,2.45
2019-05-16T07:39:21.846Z,2.37
2019-05-16T07:41:54.050Z,2.55
2019-05-16T07:44:25.668Z,2.37
2019-05-16T07:46:57.452Z,2.33
2019-05-16T07:49:30.455Z,2.27
2019-05-16T07:52:01.493Z,2.55
2019-05-16T07:54:34.518Z,2.42
2019-05-16T07:57:17.664Z,2.35
2019-05-16T07:59:40.518Z,2.27
2019-05-16T08:02:12.664Z,2.45
2019-05-16T08:04:43.986Z,2.37
2019-05-16T08:07:16.514Z,2.55
2019-05-16T08:09:50.465Z,2.60
2019-05-16T08:12:26.230Z,2.45
2019-05-16T08:14:55.348Z,3.08
2019-05-16T08:17:27.234Z,3.00
2019-05-16T08:20:00.028Z,5.10
2019-05-16T08:22:33.225Z,3.27
2019-05-16T08:25:05.224Z,2.55
2019-05-16T08:27:36.264Z,2.72
2019-05-16T08:30:11.037Z,2.30
2019-05-16T08:32:42.496Z,2.90
2019-05-16T08:35:15.076Z,3.30
2019-05-16T08:37:47.241Z,6.80
2019-05-16T08:40:21.275Z,4.15
2019-05-16T08:42:54.441Z,5.03
2019-05-16T08:45:26.335Z,3.80
2019-05-16T08:48:00.180Z,7.15
2019-05-16T08:50:35.888Z,4.80
2019-05-16T08:53:06.167Z,4.03
2019-05-16T08:55:37.633Z,2.90
2019-05-16T08:58:13.499Z,3.00
2019-05-16T09:00:42.158Z,3.90
2019-05-16T09:03:13.532Z,3.20
2019-05-16T09:05:44.818Z,13.05
2019-05-16T09:08:16.367Z,7.40
2019-05-16T09:10:59.765Z,6.97
2019-05-16T09:13:22.391Z,4.80
2019-05-16T09:15:56.888Z,5.35
2019-05-16T09:18:29.040Z,4.25
2019-05-16T09:21:00.683Z,3.40
2019-05-16T09:23:33.246Z,2.80
2019-05-16T09:26:07.392Z,2.87
2019-05-16T09:28:40.047Z,2.67
2019-05-16T09:31:11.408Z,2.92
2019-05-16T09:33:43.286Z,2.75
2019-05-16T09:36:17.483Z,2.42
2019-05-16T09:38:48.867Z,2.80
2019-05-16T09:41:20.135Z,2.60
2019-05-16T09:43:51.492Z,2.87
2019-05-16T09:46:23.310Z,2.83
2019-05-16T09:49:13.044Z,2.33
2019-05-16T09:51:27.991Z,2.95
2019-05-16T09:53:59.256Z,2.58
2019-05-16T09:56:31.050Z,2.47
2019-05-16T09:59:02.121Z,3.33
2019-05-16T10:01:36.833Z,2.80
2019-05-16T10:04:07.777Z,3.37
2019-05-16T10:06:39.514Z,3.50
2019-05-16T10:09:10.760Z,4.12
2019-05-16T10:11:42.863Z,3.83
2019-05-16T10:14:17.342Z,3.45
2019-05-16T10:16:49.313Z,3.12
2019-05-16T10:19:20.465Z,2.98
2019-05-16T10:21:51.734Z,2.87
2019-05-16T10:24:23.771Z,3.20
2019-05-16T10:26:57.172Z,3.22
2019-05-16T10:29:29.208Z,3.87
2019-05-16T10:32:01.135Z,3.95
2019-05-16T10:34:33.540Z,5.92
2019-05-16T10:37:05.100Z,6.55
2019-05-16T10:39:37.377Z,5.30
2019-05-16T10:42:23.725Z,4.25
2019-05-16T10:44:43.088Z,6.72
2019-05-16T10:47:17.279Z,4.15
2019-05-16T10:49:48.060Z,3.80
2019-05-16T10:52:19.954Z,4.80
2019-05-16T10:54:58.074Z,8.65
2019-05-16T10:57:29.382Z,5.00
2019-05-16T11:00:09.307Z,4.22
2019-05-16T11:02:33.988Z,4.40
2019-05-16T11:05:24.595Z,4.22
2019-05-16T11:07:39.158Z,3.90
2019-05-16T11:10:10.816Z,4.10
2019-05-16T11:12:50.061Z,4.03
2019-05-16T11:15:17.262Z,4.28
2019-05-16T11:17:49.385Z,4.97
2019-05-16T11:20:22.412Z,4.40
2019-05-16T11:22:53.681Z,4.28
2019-05-16T11:25:32.268Z,3.90
2019-05-16T11:27:58.857Z,3.95
2019-05-16T11:30:30.846Z,3.90
2019-05-16T11:33:02.175Z,3.92
2019-05-16T11:35:33.189Z,3.90
2019-05-16T11:38:07.155Z,4.35
2019-05-16T11:40:38.091Z,7.27
2019-05-16T11:43:17.699Z,5.83
2019-05-16T11:45:43.629Z,4.92
2019-05-16T11:48:17.121Z,4.30
2019-05-16T11:50:48.608Z,4.62
2019-05-16T11:53:19.931Z,4.25
2019-05-16T11:55:56.385Z,5.20
2019-05-16T11:58:26.667Z,4.80
2019-05-16T12:00:58.039Z,3.92
2019-05-16T12:03:29.126Z,4.03
2019-05-16T12:06:01.333Z,3.95
2019-05-16T12:08:33.467Z,4.42
2019-05-16T12:11:06.943Z,3.87
2019-05-16T12:13:38.389Z,4.30
2019-05-16T12:16:10.064Z,4.00
2019-05-16T12:18:41.561Z,4.23
2019-05-16T12:21:13.273Z,4.33
2019-05-16T12:23:47.143Z,3.67
2019-05-16T12:26:18.094Z,4.50
2019-05-16T12:28:50.802Z,4.73
2019-05-16T12:31:22.672Z,4.40
2019-05-16T12:33:59.371Z,4.63
2019-05-16T12:36:31.331Z,5.67
2019-05-16T12:39:01.723Z,4.33
2019-05-16T12:41:40.224Z,4.07
2019-05-16T12:44:08.194Z,3.80
2019-05-16T12:46:39.782Z,3.80
2019-05-16T12:49:11.092Z,4.30
2019-05-16T12:51:43.422Z,4.77
2019-05-16T12:54:18.131Z,4.30
2019-05-16T12:56:48.989Z,3.83
2019-05-16T12:59:21.644Z,4.07
2019-05-16T13:01:53.655Z,3.70
2019-05-16T13:04:27.983Z,3.80
2019-05-16T13:06:58.207Z,3.87
2019-05-16T13:09:30.062Z,3.50
2019-05-16T13:12:01.698Z,3.50
2019-05-16T13:14:33.030Z,5.43
2019-05-16T13:17:07.069Z,6.87
2019-05-16T13:19:44.153Z,4.07
2019-05-16T13:22:11.050Z,6.43
2019-05-16T13:24:42.731Z,4.90
2019-05-16T13:27:20.059Z,5.03
2019-05-16T13:29:47.823Z,5.43
2019-05-16T13:32:20.753Z,5.50
2019-05-16T13:34:52.501Z,5.90
2019-05-16T13:37:24.146Z,4.37
2019-05-16T13:39:56.891Z,4.77
2019-05-16T13:42:28.697Z,4.50
2019-05-16T13:45:00.390Z,4.20
2019-05-16T13:47:32.024Z,4.33
2019-05-16T13:50:03.705Z,5.43
2019-05-16T13:52:36.560Z,5.20
2019-05-16T13:55:09.855Z,5.60
2019-05-16T13:57:41.282Z,5.53
2019-05-16T14:00:17.299Z,5.20
2019-05-16T14:02:48.578Z,4.90
2019-05-16T14:05:20.199Z,4.17
2019-05-16T14:07:52.053Z,3.70
2019-05-16T14:10:23.865Z,3.57
2019-05-16T14:12:57.737Z,3.57
2019-05-16T14:15:29.788Z,3.20
2019-05-16T14:18:02.058Z,8.40
2019-05-16T14:20:33.401Z,6.90
2019-05-16T14:23:08.071Z,13.00
2019-05-16T14:25:38.331Z,5.40
2019-05-16T14:28:09.768Z,4.63
2019-05-16T14:30:41.201Z,3.53
2019-05-16T14:33:14.106Z,3.57
2019-05-16T14:35:47.234Z,3.80
2019-05-16T14:38:19.132Z,3.07
2019-05-16T14:40:50.963Z,3.70
2019-05-16T14:43:22.887Z,2.90
2019-05-16T14:45:54.432Z,2.50
2019-05-16T14:48:27.882Z,2.80
2019-05-16T14:50:59.643Z,3.43
2019-05-16T14:53:31.264Z,5.57
2019-05-16T14:56:02.926Z,3.33
2019-05-16T14:58:37.476Z,3.40
2019-05-16T15:01:07.700Z,2.00
2019-05-16T15:03:39.647Z,3.10
2019-05-16T15:06:11.549Z,3.50
2019-05-16T15:08:43.098Z,2.70
2019-05-16T15:11:17.820Z,7.23
2019-05-16T15:13:49.413Z,2.13
2019-05-16T15:16:21.073Z,5.00
2019-05-16T15:18:53.238Z,5.40
2019-05-16T15:21:24.294Z,8.37
2019-05-16T15:23:59.388Z,4.80
2019-05-16T15:26:30.328Z,2.67
2019-05-16T15:29:02.166Z,2.30
2019-05-16T15:31:33.766Z,2.40
2019-05-16T15:34:05.846Z,2.90
2019-05-16T15:36:37.725Z,4.20
2019-05-16T15:39:10.241Z,3.90
2019-05-16T15:41:41.791Z,3.50
2019-05-16T15:44:13.679Z,3.10
2019-05-16T15:46:47.926Z,25.80
2019-05-16T15:49:20.546Z,11.57
2019-05-16T15:51:53.377Z,38.83
2019-05-16T15:54:28.532Z,11.90
2019-05-16T15:57:00.964Z,3.13
2019-05-16T15:59:32.841Z,5.20
2019-05-16T16:02:07.278Z,3.30
2019-05-16T16:04:38.245Z,4.30
2019-05-16T16:07:10.760Z,2.10
2019-05-16T16:09:42.302Z,1.87
2019-05-16T16:12:16.840Z,2.07
2019-05-16T16:14:47.571Z,1.60
2019-05-16T16:17:18.870Z,2.63
2019-05-16T16:19:50.152Z,4.07
2019-05-16T16:22:22.136Z,2.57
2019-05-16T16:24:53.417Z,2.10
2019-05-16T16:27:27.301Z,2.37
2019-05-16T16:29:59.181Z,3.40
2019-05-16T16:32:31.233Z,2.60
2019-05-16T16:35:02.605Z,2.83
2019-05-16T16:37:34.615Z,4.20
2019-05-16T16:40:11.455Z,2.80
2019-05-16T16:42:39.898Z,2.83
2019-05-16T16:45:11.969Z,3.50
2019-05-16T16:47:43.496Z,3.60
2019-05-16T16:50:17.114Z,4.97
2019-05-16T16:52:49.473Z,4.07
2019-05-16T16:55:27.525Z,2.97
2019-05-16T16:57:59.874Z,3.40
2019-05-16T17:00:31.580Z,3.43
2019-05-16T17:03:07.197Z,4.43
2019-05-16T17:05:37.462Z,3.77
2019-05-16T17:08:09.102Z,3.40
2019-05-16T17:10:40.769Z,3.53
2019-05-16T17:13:12.925Z,3.73
2019-05-16T17:15:44.451Z,4.13
2019-05-16T17:18:17.484Z,3.60
2019-05-16T17:20:48.941Z,4.40
2019-05-16T17:23:21.190Z,4.80
2019-05-16T17:25:53.147Z,7.97
2019-05-16T17:28:25.151Z,6.30
2019-05-16T17:30:56.855Z,5.90
2019-05-16T17:33:28.584Z,6.13
2019-05-16T17:36:00.743Z,5.93
2019-05-16T17:38:32.761Z,5.47
2019-05-16T17:41:04.434Z,5.97
2019-05-16T17:43:36.429Z,6.27
2019-05-16T17:46:08.127Z,6.13
2019-05-16T17:48:40.081Z,6.13
2019-05-16T17:51:11.738Z,6.23
2019-05-16T17:53:43.153Z,6.40
2019-05-16T17:56:16.893Z,7.03
2019-05-16T17:58:48.244Z,6.43
2019-05-16T18:01:20.069Z,6.60
2019-05-16T18:03:51.405Z,6.87
2019-05-16T18:06:23.102Z,7.10
2019-05-16T18:08:57.156Z,6.60
2019-05-16T18:11:29.284Z,5.70
2019-05-16T18:14:00.355Z,5.60
2019-05-16T18:16:33.228Z,5.90
2019-05-16T18:19:07.052Z,6.00
2019-05-16T18:21:38.046Z,5.80
2019-05-16T18:24:09.688Z,5.83
2019-05-16T18:26:41.059Z,6.50
2019-05-16T18:29:12.977Z,5.97
2019-05-16T18:31:47.192Z,6.93
2019-05-16T18:34:19.155Z,5.87
2019-05-16T18:36:51.078Z,6.00
2019-05-16T18:39:22.997Z,6.13
2019-05-16T18:41:56.486Z,6.27
2019-05-16T18:44:28.442Z,5.97
2019-05-16T18:47:06.937Z,6.47
2019-05-16T18:49:36.578Z,6.40
2019-05-16T18:52:07.316Z,6.23
2019-05-16T18:54:39.090Z,7.50
2019-05-16T18:57:11.369Z,7.03
2019-05-16T18:59:46.129Z,7.20
2019-05-16T19:02:17.976Z,7.47
2019-05-16T19:04:50.266Z,6.80
2019-05-16T19:07:21.974Z,7.83
2019-05-16T19:09:54.237Z,7.13
2019-05-16T19:12:26.333Z,7.40
2019-05-16T19:15:00.146Z,7.77
2019-05-16T19:17:30.794Z,8.50
2019-05-16T19:20:02.479Z,8.83
2019-05-16T19:22:34.386Z,8.73
2019-05-16T19:25:07.687Z,8.60
2019-05-16T19:27:40.000Z,9.20
2019-05-16T19:30:12.463Z,9.73
2019-05-16T19:32:46.727Z,10.20
2019-05-16T19:35:18.078Z,9.70
2019-05-16T19:37:49.392Z,9.97
2019-05-16T19:40:21.336Z,9.80
2019-05-16T19:42:53.566Z,10.20
2019-05-16T19:45:26.456Z,10.80
2019-05-16T19:47:58.173Z,10.33
2019-05-16T19:50:29.224Z,11.10
2019-05-16T19:53:01.068Z,11.37
2019-05-16T19:55:32.830Z,12.20
2019-05-16T19:58:06.883Z,12.90
2019-05-16T20:00:38.425Z,12.07
2019-05-16T20:03:10.452Z,13.30
2019-05-16T20:05:42.491Z,13.77
2019-05-16T20:08:17.474Z,13.23
2019-05-16T20:10:48.913Z,14.63
2019-05-16T20:13:20.637Z,13.43
2019-05-16T20:15:52.484Z,14.93
2019-05-16T20:18:24.079Z,14.33
2019-05-16T20:20:56.852Z,15.07
2019-05-16T20:23:30.133Z,15.07
2019-05-16T20:26:02.402Z,14.87
2019-05-16T20:28:36.915Z,15.20
2019-05-16T20:31:09.375Z,15.23
2019-05-16T20:33:40.694Z,16.40
2019-05-16T20:36:12.617Z,16.07
2019-05-16T20:38:46.472Z,15.37
2019-05-16T20:41:17.274Z,16.03
2019-05-16T20:43:48.770Z,14.57
2019-05-16T20:46:20.786Z,15.30
2019-05-16T20:48:52.754Z,15.60
2019-05-16T20:51:26.906Z,14.97
2019-05-16T20:53:58.396Z,15.10
2019-05-16T20:56:30.162Z,15.40
2019-05-16T20:59:01.811Z,15.60
2019-05-16T21:01:33.069Z,15.67
2019-05-16T21:04:04.083Z,15.70
2019-05-16T21:06:35.487Z,15.77
2019-05-16T21:09:08.226Z,15.70
2019-05-16T21:11:40.259Z,15.30
2019-05-16T21:14:12.483Z,15.03
2019-05-16T21:16:44.076Z,15.10
2019-05-16T21:19:16.360Z,14.53
2019-05-16T21:21:47.695Z,14.47
2019-05-16T21:24:22.171Z,15.87
2019-05-16T21:26:54.260Z,15.87
2019-05-16T21:29:27.638Z,14.70
2019-05-16T21:32:00.944Z,14.90
2019-05-16T21:34:32.533Z,15.47
2019-05-16T21:37:13.835Z,15.80
2019-05-16T21:39:37.581Z,14.73
2019-05-16T21:42:09.221Z,15.83
2019-05-16T21:44:40.645Z,14.80
2019-05-16T21:47:12.324Z,16.37
2019-05-16T21:49:44.243Z,15.17
2019-05-16T21:52:16.413Z,15.77
2019-05-16T21:54:48.019Z,14.93
2019-05-16T21:57:20.323Z,15.97
2019-05-16T21:59:51.970Z,14.70
2019-05-16T22:02:23.372Z,14.63
2019-05-16T22:04:56.718Z,15.43
2019-05-16T22:07:33.527Z,15.67
2019-05-16T22:10:02.493Z,15.53
2019-05-16T22:12:38.201Z,15.17
2019-05-16T22:15:10.209Z,14.70
2019-05-16T22:17:43.742Z,16.67
2019-05-16T22:20:16.623Z,16.97
2019-05-16T22:22:48.639Z,16.77
2019-05-16T22:25:20.835Z,17.57
2019-05-16T22:27:52.218Z,17.67
2019-05-16T22:30:23.988Z,17.77
2019-05-16T22:32:55.386Z,16.60
2019-05-16T22:35:27.463Z,17.20
2019-05-16T22:37:59.624Z,17.43
2019-05-16T22:40:33.341Z,18.23
2019-05-16T22:43:09.713Z,17.83
2019-05-16T22:45:38.859Z,17.20
2019-05-16T22:48:09.866Z,16.97
2019-05-16T22:50:41.867Z,17.03
2019-05-16T22:53:13.692Z,17.73
2019-05-16T22:55:47.587Z,18.40
2019-05-16T22:58:18.519Z,18.80
2019-05-16T23:00:49.843Z,18.53
2019-05-16T23:03:20.858Z,17.83
2019-05-16T23:05:52.737Z,18.57
2019-05-16T23:08:24.021Z,17.73
2019-05-16T23:10:56.491Z,17.87
2019-05-16T23:13:28.072Z,16.63
2019-05-16T23:16:00.035Z,19.70
2019-05-16T23:18:31.530Z,18.10
2019-05-16T23:21:03.126Z,18.07
2019-05-16T23:23:37.013Z,17.53
2019-05-16T23:26:08.510Z,17.87
2019-05-16T23:28:40.158Z,17.87
2019-05-16T23:31:11.786Z,18.33
2019-05-16T23:33:42.817Z,18.10
2019-05-16T23:36:17.250Z,17.23
2019-05-16T23:38:47.624Z,18.47
2019-05-16T23:41:19.253Z,18.87
2019-05-16T23:43:50.605Z,17.70
2019-05-16T23:46:22.490Z,17.90
2019-05-16T23:48:56.433Z,18.50
2019-05-16T23:51:27.718Z,18.97
2019-05-16T23:53:59.588Z,18.37
2019-05-16T23:56:31.228Z,18.63
2019-05-16T23:59:02.837Z,18.10
